createdAt,value
2022-08-27T00:04:19.820Z,45.15
2022-08-27T00:09:27.019Z,45.20
2022-08-27T00:14:30.492Z,45.22
2022-08-27T00:19:34.021Z,43.45
2022-08-27T00:24:38.557Z,45.35
2022-08-27T00:29:52.068Z,45.22
2022-08-27T00:34:55.224Z,45.08
2022-08-27T00:39:59.670Z,45.35
2022-08-27T00:45:03.048Z,44.47
2022-08-27T00:50:12.020Z,45.97
2022-08-27T00:55:18.995Z,46.10
2022-08-27T01:00:22.190Z,45.70
2022-08-27T01:05:28.330Z,43.95
2022-08-27T01:10:32.903Z,45.75
2022-08-27T01:15:36.371Z,46.10
2022-08-27T01:20:45.060Z,46.00
2022-08-27T01:25:51.812Z,46.75
2022-08-27T01:30:54.738Z,47.03
2022-08-27T01:35:57.613Z,47.33
2022-08-27T01:41:02.799Z,46.85
2022-08-27T01:46:06.242Z,46.55
2022-08-27T01:51:09.766Z,47.80
2022-08-27T01:56:15.337Z,46.30
2022-08-27T02:01:18.340Z,47.42
2022-08-27T02:06:21.350Z,48.17
2022-08-27T02:11:25.599Z,47.50
2022-08-27T02:16:28.741Z,46.20
2022-08-27T02:21:31.687Z,46.95
2022-08-27T02:26:36.076Z,46.40
2022-08-27T02:31:39.886Z,47.33
2022-08-27T02:36:42.915Z,47.33
2022-08-27T02:41:48.407Z,46.95
2022-08-27T02:46:53.588Z,46.28
2022-08-27T02:51:57.331Z,47.30
2022-08-27T02:57:01.604Z,46.95
2022-08-27T03:02:04.942Z,47.15
2022-08-27T03:07:07.980Z,48.53
2022-08-27T03:12:24.904Z,44.50
2022-08-27T03:17:45.529Z,45.78
2022-08-27T03:22:48.460Z,49.35
2022-08-27T03:27:53.072Z,44.42
2022-08-27T03:32:56.075Z,42.92
2022-08-27T03:37:58.999Z,44.35
2022-08-27T03:43:03.326Z,46.38
2022-08-27T03:48:06.867Z,42.08
2022-08-27T03:53:10.503Z,42.33
2022-08-27T03:58:15.206Z,42.90
2022-08-27T04:03:18.136Z,44.25
2022-08-27T04:08:21.613Z,48.67
2022-08-27T04:13:27.327Z,48.72
2022-08-27T04:18:30.212Z,49.25
2022-08-27T04:23:33.111Z,46.30
2022-08-27T04:28:38.785Z,47.97
2022-08-27T04:33:42.307Z,49.72
2022-08-27T04:38:53.455Z,49.88
2022-08-27T04:43:59.920Z,49.63
2022-08-27T04:49:07.115Z,46.95
2022-08-27T04:54:13.316Z,44.20
2022-08-27T04:59:18.279Z,44.60
2022-08-27T05:04:21.291Z,46.28
2022-08-27T05:09:24.549Z,49.72
2022-08-27T05:14:32.328Z,48.15
2022-08-27T05:19:35.289Z,49.00
2022-08-27T05:24:38.820Z,49.35
2022-08-27T05:29:43.036Z,48.83
2022-08-27T05:34:45.948Z,46.30
2022-08-27T05:39:48.840Z,45.58
2022-08-27T05:44:53.264Z,49.25
2022-08-27T05:49:56.692Z,43.92
2022-08-27T05:54:59.714Z,45.65
2022-08-27T06:00:22.140Z,44.97
2022-08-27T06:05:25.067Z,50.13
2022-08-27T06:10:28.041Z,54.78
2022-08-27T06:15:32.718Z,47.65
2022-08-27T06:20:36.034Z,55.25
2022-08-27T06:25:41.904Z,53.13
2022-08-27T06:30:46.173Z,48.00
2022-08-27T06:35:49.108Z,52.92
2022-08-27T06:40:52.019Z,50.42
2022-08-27T06:45:56.357Z,46.30
2022-08-27T06:50:59.667Z,50.83
2022-08-27T06:56:02.680Z,52.08
2022-08-27T07:01:15.513Z,53.05
2022-08-27T07:06:19.016Z,52.15
2022-08-27T07:11:22.482Z,53.47
2022-08-27T07:16:28.348Z,50.92
2022-08-27T07:21:31.624Z,52.13
2022-08-27T07:26:37.258Z,52.63
2022-08-27T07:31:42.002Z,51.92
2022-08-27T07:36:44.904Z,51.67
2022-08-27T07:42:05.288Z,52.78
2022-08-27T07:47:09.787Z,52.53
2022-08-27T07:52:13.520Z,52.20
2022-08-27T07:57:16.422Z,51.50
2022-08-27T08:02:20.897Z,53.20
2022-08-27T08:07:25.066Z,46.92
2022-08-27T08:12:28.044Z,53.75
2022-08-27T08:17:33.799Z,54.33
2022-08-27T08:22:36.863Z,53.25
2022-08-27T08:27:39.730Z,53.08
2022-08-27T08:32:44.288Z,55.35
2022-08-27T08:37:47.529Z,53.60
2022-08-27T08:42:55.740Z,54.95
2022-08-27T08:48:05.902Z,54.00
2022-08-27T08:53:14.198Z,54.45
2022-08-27T08:58:26.155Z,56.80
2022-08-27T09:03:35.478Z,56.85
2022-08-27T09:08:42.719Z,53.90
2022-08-27T09:13:51.620Z,57.00
2022-08-27T09:18:56.506Z,57.55
2022-08-27T09:24:06.288Z,56.20
2022-08-27T09:29:20.234Z,56.85
2022-08-27T09:34:27.245Z,57.78
2022-08-27T09:39:35.275Z,57.28
2022-08-27T09:44:52.874Z,57.63
2022-08-27T09:50:09.447Z,55.67
2022-08-27T09:55:12.371Z,58.05
2022-08-27T10:00:18.067Z,55.30
2022-08-27T10:05:29.465Z,55.72
2022-08-27T10:10:46.138Z,56.33
2022-08-27T10:16:07.240Z,53.88
2022-08-27T10:21:20.132Z,53.35
2022-08-27T10:26:29.703Z,55.50
2022-08-27T10:31:41.814Z,54.90
2022-08-27T10:36:58.022Z,53.63
2022-08-27T10:42:15.018Z,53.90
2022-08-27T10:47:31.399Z,53.63
2022-08-27T10:52:40.550Z,54.70
2022-08-27T10:58:08.428Z,52.25
2022-08-27T11:03:15.392Z,51.35
2022-08-27T11:08:25.258Z,51.38
2022-08-27T11:13:36.260Z,49.63
2022-08-27T11:18:48.291Z,50.90
2022-08-27T11:23:58.448Z,50.08
2022-08-27T11:29:06.776Z,46.90
2022-08-27T11:34:19.338Z,46.85
2022-08-27T11:39:40.687Z,47.20
2022-08-27T11:44:46.602Z,47.38
2022-08-27T11:49:52.640Z,47.28
2022-08-27T11:55:12.745Z,47.13
2022-08-27T12:00:20.287Z,47.70
2022-08-27T12:05:26.860Z,48.25
2022-08-27T12:10:47.748Z,45.97
2022-08-27T12:15:59.749Z,45.30
2022-08-27T12:21:11.221Z,44.55
2022-08-27T12:26:30.238Z,43.22
2022-08-27T12:31:35.336Z,42.72
2022-08-27T12:36:38.372Z,41.80
2022-08-27T12:41:47.084Z,42.17
2022-08-27T12:46:55.364Z,41.65
2022-08-27T12:52:02.164Z,41.63
2022-08-27T12:57:12.832Z,40.97
2022-08-27T13:02:32.759Z,41.08
2022-08-27T13:07:41.580Z,43.60
2022-08-27T13:12:47.491Z,43.97
2022-08-27T13:17:52.702Z,43.72
2022-08-27T13:22:56.868Z,43.88
2022-08-27T13:28:07.876Z,44.60
2022-08-27T13:33:15.592Z,43.30
2022-08-27T13:38:21.464Z,42.15
2022-08-27T13:43:32.700Z,41.78
2022-08-27T13:48:40.562Z,41.45
2022-08-27T13:54:04.232Z,42.13
2022-08-27T13:59:14.663Z,41.22
2022-08-27T14:04:24.178Z,41.85
2022-08-27T14:09:29.932Z,41.22
2022-08-27T14:14:39.929Z,40.60
2022-08-27T14:19:42.964Z,41.65
2022-08-27T14:24:45.988Z,43.17
2022-08-27T14:29:50.916Z,41.47
2022-08-27T14:34:54.404Z,41.03
2022-08-27T14:39:58.827Z,41.17
2022-08-27T14:45:03.565Z,42.38
2022-08-27T14:50:11.047Z,42.75
2022-08-27T14:55:14.413Z,42.83
2022-08-27T15:00:19.733Z,42.97
2022-08-27T15:05:24.735Z,43.67
2022-08-27T15:10:28.138Z,43.88
2022-08-27T15:15:32.806Z,43.58
2022-08-27T15:20:36.361Z,43.95
2022-08-27T15:25:40.383Z,43.83
2022-08-27T15:30:44.970Z,45.13
2022-08-27T15:35:48.077Z,44.20
2022-08-27T15:40:51.637Z,44.30
2022-08-27T15:45:56.699Z,44.83
2022-08-27T15:51:02.521Z,45.03
2022-08-27T15:56:07.890Z,44.40
2022-08-27T16:01:14.291Z,45.35
2022-08-27T16:06:19.630Z,44.55
2022-08-27T16:11:23.193Z,44.80
2022-08-27T16:16:36.735Z,45.85
2022-08-27T16:21:39.874Z,45.20
2022-08-27T16:26:43.113Z,45.00
2022-08-27T16:31:47.537Z,46.20
2022-08-27T16:36:52.802Z,46.70
2022-08-27T16:41:55.885Z,45.75
2022-08-27T16:47:00.144Z,47.03
2022-08-27T16:52:03.809Z,46.65
2022-08-27T16:57:07.123Z,46.58
2022-08-27T17:02:19.751Z,46.30
2022-08-27T17:07:25.774Z,46.35
2022-08-27T17:12:29.056Z,46.63
2022-08-27T17:17:33.395Z,46.30
2022-08-27T17:22:36.535Z,46.30
2022-08-27T17:27:39.670Z,46.65
2022-08-27T17:32:45.450Z,46.70
2022-08-27T17:37:48.349Z,45.60
2022-08-27T17:42:51.745Z,46.38
2022-08-27T17:47:55.987Z,46.40
2022-08-27T17:52:59.371Z,46.58
2022-08-27T17:58:02.317Z,46.25
2022-08-27T18:03:16.636Z,46.28
2022-08-27T18:08:20.623Z,45.53
2022-08-27T18:13:23.825Z,45.58
2022-08-27T18:18:28.698Z,45.47
2022-08-27T18:23:32.088Z,45.30
2022-08-27T18:28:40.172Z,45.00
2022-08-27T18:33:44.431Z,45.72
2022-08-27T18:38:47.369Z,45.15
2022-08-27T18:43:50.857Z,45.33
2022-08-27T18:48:55.159Z,46.05
2022-08-27T18:54:02.296Z,45.15
2022-08-27T18:59:06.889Z,45.30
2022-08-27T19:04:11.860Z,45.83
2022-08-27T19:09:16.123Z,45.38
2022-08-27T19:14:19.205Z,45.58
2022-08-27T19:19:25.608Z,46.28
2022-08-27T19:24:28.956Z,45.47
2022-08-27T19:29:31.899Z,44.38
2022-08-27T19:34:36.128Z,44.38
2022-08-27T19:39:39.217Z,45.70
2022-08-27T19:44:42.290Z,44.58
2022-08-27T19:49:49.533Z,46.10
2022-08-27T19:55:12.459Z,45.72
2022-08-27T20:00:20.001Z,45.58
2022-08-27T20:05:24.427Z,46.05
2022-08-27T20:10:36.208Z,45.97
2022-08-27T20:15:40.610Z,45.78
2022-08-27T20:20:44.933Z,45.38
2022-08-27T20:25:47.883Z,44.40
2022-08-27T20:30:53.263Z,45.00
2022-08-27T20:35:59.576Z,45.70
2022-08-27T20:41:02.773Z,45.55
2022-08-27T20:46:06.163Z,46.20
2022-08-27T20:51:14.519Z,44.88
2022-08-27T20:56:17.432Z,44.38
2022-08-27T21:01:20.342Z,45.50
2022-08-27T21:06:26.532Z,44.28
2022-08-27T21:11:29.635Z,45.35
2022-08-27T21:16:33.199Z,45.38
2022-08-27T21:21:37.430Z,45.25
2022-08-27T21:26:40.421Z,45.33
2022-08-27T21:31:43.405Z,45.50
2022-08-27T21:36:47.684Z,44.80
2022-08-27T21:41:50.815Z,43.08
2022-08-27T21:46:53.798Z,44.25
2022-08-27T21:51:58.064Z,44.70
2022-08-27T21:57:03.043Z,45.38
2022-08-27T22:02:22.939Z,45.03
2022-08-27T22:07:30.179Z,44.88
2022-08-27T22:12:33.091Z,45.42
2022-08-27T22:17:36.228Z,43.38
2022-08-27T22:22:40.615Z,45.65
2022-08-27T22:27:43.507Z,45.95
2022-08-27T22:32:46.632Z,43.95
2022-08-27T22:37:51.767Z,43.83
2022-08-27T22:42:54.888Z,46.83
2022-08-27T22:47:58.234Z,44.72
2022-08-27T22:53:02.562Z,46.05
2022-08-27T22:58:05.785Z,43.63
2022-08-27T23:03:11.383Z,45.58
2022-08-27T23:08:16.352Z,46.95
2022-08-27T23:13:19.303Z,46.67
2022-08-27T23:18:22.212Z,46.53
2022-08-27T23:23:29.903Z,43.47
2022-08-27T23:28:33.834Z,43.97
2022-08-27T23:33:36.863Z,46.42
2022-08-27T23:38:42.612Z,45.55
2022-08-27T23:43:45.658Z,45.17
2022-08-27T23:48:48.535Z,47.17
2022-08-27T23:53:52.799Z,45.78
2022-08-27T23:58:55.768Z,46.97
